createdAt,value
2023-02-19T00:00:12.085Z,50.48
2023-02-19T00:03:13.916Z,49.66
2023-02-19T00:06:16.010Z,49.04
2023-02-19T00:09:18.735Z,48.92
2023-02-19T00:12:21.215Z,49.10
2023-02-19T00:15:23.165Z,49.98
2023-02-19T00:18:25.027Z,50.69
2023-02-19T00:21:27.349Z,49.96
2023-02-19T00:24:29.225Z,49.59
2023-02-19T00:27:31.055Z,49.27
2023-02-19T00:30:32.969Z,50.78
2023-02-19T00:33:34.905Z,49.82
2023-02-19T00:36:37.612Z,50.16
2023-02-19T00:39:39.782Z,50.45
2023-02-19T00:42:41.716Z,48.83
2023-02-19T00:45:43.959Z,49.27
2023-02-19T00:48:45.973Z,49.58
2023-02-19T00:51:48.113Z,49.50
2023-02-19T00:54:49.967Z,49.21
2023-02-19T00:57:51.947Z,48.49
2023-02-19T01:00:53.802Z,48.96
2023-02-19T01:03:55.680Z,49.36
2023-02-19T01:06:57.743Z,49.23
2023-02-19T01:09:59.696Z,50.09
2023-02-19T01:13:01.670Z,49.41
2023-02-19T01:16:06.626Z,48.10
2023-02-19T01:19:08.546Z,48.20
2023-02-19T01:22:10.711Z,48.48
2023-02-19T01:25:12.746Z,48.39
2023-02-19T01:28:14.824Z,49.19
2023-02-19T01:31:18.153Z,49.49
2023-02-19T01:34:20.087Z,47.32
2023-02-19T01:37:21.898Z,48.34
2023-02-19T01:40:23.883Z,48.53
2023-02-19T01:43:26.094Z,48.85
2023-02-19T01:46:29.167Z,50.40
2023-02-19T01:49:32.374Z,48.68
2023-02-19T01:52:34.719Z,50.43
2023-02-19T01:55:36.643Z,48.59
2023-02-19T01:58:38.551Z,49.32
2023-02-19T02:01:40.496Z,49.06
2023-02-19T02:04:42.461Z,50.16
2023-02-19T02:08:02.866Z,48.99
2023-02-19T02:11:04.912Z,50.41
2023-02-19T02:14:06.897Z,50.59
2023-02-19T02:17:29.125Z,50.20
2023-02-19T02:20:37.240Z,49.87
2023-02-19T02:23:39.023Z,49.86
2023-02-19T02:26:52.527Z,49.58
2023-02-19T02:30:13.460Z,50.56
2023-02-19T02:33:26.967Z,51.93
2023-02-19T02:36:33.836Z,52.16
2023-02-19T02:39:35.984Z,52.05
2023-02-19T02:42:38.820Z,50.47
2023-02-19T02:45:40.842Z,51.59
2023-02-19T02:48:46.746Z,52.23
2023-02-19T02:51:50.451Z,50.73
2023-02-19T02:55:04.490Z,51.28
2023-02-19T02:58:06.373Z,51.55
2023-02-19T03:01:30.998Z,51.35
2023-02-19T03:04:58.873Z,52.33
2023-02-19T03:08:00.689Z,52.42
2023-02-19T03:11:24.017Z,52.05
2023-02-19T03:14:47.208Z,51.28
2023-02-19T03:18:08.787Z,50.75
2023-02-19T03:21:10.920Z,51.10
2023-02-19T03:24:31.654Z,52.12
2023-02-19T03:27:33.512Z,50.27
2023-02-19T03:30:55.711Z,50.28
2023-02-19T03:33:58.551Z,50.90
2023-02-19T03:37:32.907Z,50.86
2023-02-19T03:40:35.975Z,49.91
2023-02-19T03:43:42.284Z,50.50
2023-02-19T03:46:44.180Z,50.38
2023-02-19T03:49:49.090Z,50.83
2023-02-19T03:53:04.205Z,49.72
2023-02-19T03:56:24.885Z,50.15
2023-02-19T03:59:34.632Z,49.30
2023-02-19T04:02:41.831Z,47.94
2023-02-19T04:05:55.483Z,49.04
2023-02-19T04:08:59.002Z,47.58
2023-02-19T04:12:00.819Z,48.96
2023-02-19T04:15:04.963Z,48.54
2023-02-19T04:18:07.536Z,46.63
2023-02-19T04:21:09.947Z,49.67
2023-02-19T04:24:16.990Z,48.64
2023-02-19T04:27:19.102Z,48.99
2023-02-19T04:30:21.265Z,47.31
2023-02-19T04:33:23.217Z,50.04
2023-02-19T04:36:25.004Z,48.87
2023-02-19T04:39:26.916Z,50.22
2023-02-19T04:42:28.729Z,49.92
2023-02-19T04:45:30.773Z,48.56
2023-02-19T04:48:32.855Z,48.54
2023-02-19T04:51:34.755Z,49.19
2023-02-19T04:54:36.695Z,49.08
2023-02-19T04:57:38.568Z,48.71
2023-02-19T05:00:40.434Z,51.15
2023-02-19T05:03:42.376Z,48.49
2023-02-19T05:06:44.282Z,48.54
2023-02-19T05:09:46.241Z,49.23
2023-02-19T05:12:48.200Z,50.85
2023-02-19T05:15:56.437Z,50.88
2023-02-19T05:18:58.484Z,52.57
2023-02-19T05:22:00.609Z,51.66
2023-02-19T05:25:02.499Z,49.91
2023-02-19T05:28:19.538Z,49.42
2023-02-19T05:31:21.984Z,50.40
2023-02-19T05:34:23.904Z,51.66
2023-02-19T05:37:25.887Z,49.88
2023-02-19T05:40:27.788Z,49.20
2023-02-19T05:43:29.725Z,48.59
2023-02-19T05:46:32.078Z,49.30
2023-02-19T05:49:34.073Z,49.85
2023-02-19T05:52:36.122Z,49.23
2023-02-19T05:55:38.114Z,49.54
2023-02-19T05:58:40.065Z,50.98
2023-02-19T06:01:42.150Z,53.82
2023-02-19T06:04:44.121Z,51.86
2023-02-19T06:07:45.983Z,50.93
2023-02-19T06:10:47.990Z,52.41
2023-02-19T06:13:50.683Z,52.79
2023-02-19T06:16:52.498Z,53.83
2023-02-19T06:19:54.400Z,55.76
2023-02-19T06:22:56.807Z,56.25
2023-02-19T06:26:08.637Z,56.20
2023-02-19T06:29:10.435Z,57.70
2023-02-19T06:32:12.440Z,58.34
2023-02-19T06:35:14.538Z,58.37
2023-02-19T06:38:16.682Z,58.91
2023-02-19T06:41:18.889Z,59.26
2023-02-19T06:44:21.020Z,60.24
2023-02-19T06:47:25.163Z,60.37
2023-02-19T06:50:27.293Z,60.33
2023-02-19T06:53:29.229Z,61.04
2023-02-19T06:56:32.120Z,60.18
2023-02-19T06:59:33.979Z,60.58
2023-02-19T07:02:35.892Z,60.91
2023-02-19T07:05:37.706Z,61.58
2023-02-19T07:08:39.770Z,61.45
2023-02-19T07:11:42.636Z,62.51
2023-02-19T07:14:44.482Z,62.65
2023-02-19T07:17:46.408Z,62.89
2023-02-19T07:20:48.392Z,63.96
2023-02-19T07:23:50.378Z,65.21
2023-02-19T07:26:52.211Z,65.03
2023-02-19T07:29:54.127Z,63.70
2023-02-19T07:32:55.976Z,65.25
2023-02-19T07:35:57.922Z,62.13
2023-02-19T07:39:00.018Z,62.21
2023-02-19T07:42:02.003Z,62.73
2023-02-19T07:45:04.028Z,62.32
2023-02-19T07:48:05.852Z,61.76
2023-02-19T07:51:09.643Z,63.29
2023-02-19T07:54:11.667Z,64.78
2023-02-19T07:57:14.699Z,65.85
2023-02-19T08:00:16.872Z,65.81
2023-02-19T08:03:18.772Z,65.20
2023-02-19T08:06:20.635Z,65.38
2023-02-19T08:09:22.533Z,65.12
2023-02-19T08:12:42.948Z,62.62
2023-02-19T08:15:45.336Z,63.57
2023-02-19T08:18:48.049Z,64.01
2023-02-19T08:21:50.680Z,63.79
2023-02-19T08:24:52.695Z,64.80
2023-02-19T08:27:54.557Z,64.33
2023-02-19T08:31:04.359Z,64.66
2023-02-19T08:34:06.364Z,65.41
2023-02-19T08:37:08.190Z,66.18
2023-02-19T08:40:10.397Z,65.22
2023-02-19T08:43:13.440Z,67.70
2023-02-19T08:46:15.417Z,70.90
2023-02-19T08:49:17.322Z,68.84
2023-02-19T08:52:19.190Z,69.56
2023-02-19T08:55:21.071Z,67.72
2023-02-19T08:58:23.282Z,70.15
2023-02-19T09:01:25.346Z,70.40
2023-02-19T09:04:27.321Z,67.62
2023-02-19T09:07:29.176Z,68.50
2023-02-19T09:10:31.167Z,72.31
2023-02-19T09:13:33.005Z,75.27
2023-02-19T09:16:35.506Z,74.25
2023-02-19T09:19:37.472Z,70.79
2023-02-19T09:22:39.338Z,68.54
2023-02-19T09:25:41.296Z,67.84
2023-02-19T09:28:43.381Z,66.15
2023-02-19T09:31:45.425Z,66.84
2023-02-19T09:34:47.468Z,69.11
2023-02-19T09:37:49.499Z,70.58
2023-02-19T09:40:51.369Z,71.99
2023-02-19T09:43:53.355Z,69.47
2023-02-19T09:46:55.179Z,69.07
2023-02-19T09:49:59.425Z,67.10
2023-02-19T09:53:03.184Z,67.49
2023-02-19T09:56:05.197Z,68.06
2023-02-19T09:59:07.166Z,64.24
2023-02-19T10:02:18.981Z,61.48
2023-02-19T10:05:20.890Z,62.32
2023-02-19T10:08:23.084Z,62.83
2023-02-19T10:11:25.075Z,63.57
2023-02-19T10:14:27.004Z,60.36
2023-02-19T10:17:34.510Z,61.76
2023-02-19T10:20:36.359Z,62.75
2023-02-19T10:23:39.197Z,62.95
2023-02-19T10:26:41.101Z,61.32
2023-02-19T10:29:43.336Z,58.13
2023-02-19T10:33:08.777Z,59.21
2023-02-19T10:36:16.410Z,58.23
2023-02-19T10:39:21.133Z,57.80
2023-02-19T10:42:23.409Z,58.31
2023-02-19T10:45:44.492Z,55.84
2023-02-19T10:48:59.735Z,55.05
2023-02-19T10:52:20.611Z,51.53
2023-02-19T10:55:30.557Z,50.21
2023-02-19T10:58:34.519Z,53.74
2023-02-19T11:01:36.530Z,48.04
2023-02-19T11:04:38.531Z,46.92
2023-02-19T11:07:44.483Z,46.73
2023-02-19T11:10:46.399Z,44.08
2023-02-19T11:13:48.396Z,45.99
2023-02-19T11:16:55.112Z,41.67
2023-02-19T11:19:57.430Z,44.41
2023-02-19T11:23:25.896Z,42.19
2023-02-19T11:26:28.775Z,43.41
2023-02-19T11:29:34.998Z,38.38
2023-02-19T11:32:36.975Z,38.56
2023-02-19T11:35:38.871Z,39.57
2023-02-19T11:38:40.868Z,40.35
2023-02-19T11:41:50.676Z,41.82
2023-02-19T11:45:11.644Z,41.90
2023-02-19T11:48:19.682Z,43.83
2023-02-19T11:51:44.996Z,43.30
2023-02-19T11:54:49.460Z,40.37
2023-02-19T11:57:51.285Z,43.12
2023-02-19T12:00:55.629Z,39.85
2023-02-19T12:04:11.111Z,42.04
2023-02-19T12:07:13.398Z,41.88
2023-02-19T12:10:26.767Z,40.69
2023-02-19T12:13:31.786Z,38.49
2023-02-19T12:16:39.788Z,38.69
2023-02-19T12:19:45.392Z,40.16
2023-02-19T12:22:53.955Z,40.02
2023-02-19T12:26:12.579Z,41.54
2023-02-19T12:29:31.065Z,42.88
2023-02-19T12:32:48.171Z,42.78
2023-02-19T12:36:05.520Z,42.88
2023-02-19T12:39:14.774Z,41.71
2023-02-19T12:42:35.385Z,42.69
2023-02-19T12:45:46.400Z,40.96
2023-02-19T12:48:52.803Z,39.73
2023-02-19T12:51:58.868Z,37.40
2023-02-19T12:55:02.549Z,40.29
2023-02-19T12:58:05.064Z,47.94
2023-02-19T13:01:07.543Z,52.30
2023-02-19T13:04:15.578Z,54.35
2023-02-19T13:07:19.302Z,59.56
2023-02-19T13:10:27.290Z,59.42
2023-02-19T13:13:31.007Z,58.57
2023-02-19T13:16:34.720Z,57.42
2023-02-19T13:19:37.179Z,54.87
2023-02-19T13:22:58.832Z,47.31
2023-02-19T13:26:03.788Z,44.09
2023-02-19T13:29:18.035Z,47.47
2023-02-19T13:32:23.525Z,44.19
2023-02-19T13:35:37.717Z,39.33
2023-02-19T13:38:44.062Z,38.35
2023-02-19T13:41:50.471Z,42.47
2023-02-19T13:44:57.739Z,42.26
2023-02-19T13:48:02.368Z,41.91
2023-02-19T13:51:16.254Z,48.70
2023-02-19T13:54:22.455Z,55.26
2023-02-19T13:57:24.382Z,58.62
2023-02-19T14:00:44.958Z,59.83
2023-02-19T14:03:53.836Z,62.14
2023-02-19T14:07:04.818Z,62.91
2023-02-19T14:10:08.967Z,63.79
2023-02-19T14:13:10.799Z,61.61
2023-02-19T14:16:29.030Z,61.76
2023-02-19T14:19:46.916Z,61.63
2023-02-19T14:22:52.558Z,62.24
2023-02-19T14:25:58.639Z,60.75
2023-02-19T14:29:00.707Z,61.03
2023-02-19T14:32:02.564Z,59.87
2023-02-19T14:35:04.603Z,59.12
2023-02-19T14:38:06.556Z,58.70
2023-02-19T14:41:08.595Z,56.20
2023-02-19T14:44:15.224Z,55.84
2023-02-19T14:47:17.751Z,57.22
2023-02-19T14:50:27.828Z,57.77
2023-02-19T14:53:29.801Z,58.00
2023-02-19T14:56:33.564Z,58.50
2023-02-19T14:59:35.518Z,59.54
2023-02-19T15:02:41.845Z,58.72
2023-02-19T15:05:45.340Z,56.59
2023-02-19T15:08:48.395Z,57.66
2023-02-19T15:11:50.481Z,56.50
2023-02-19T15:14:54.217Z,57.40
2023-02-19T15:17:56.859Z,57.22
2023-02-19T15:21:02.539Z,57.25
2023-02-19T15:24:05.253Z,57.19
2023-02-19T15:27:07.090Z,56.31
2023-02-19T15:30:23.033Z,57.18
2023-02-19T15:33:27.213Z,57.03
2023-02-19T15:36:30.374Z,58.18
2023-02-19T15:39:36.377Z,57.55
2023-02-19T15:42:38.256Z,57.59
2023-02-19T15:45:42.946Z,57.49
2023-02-19T15:48:46.795Z,57.17
2023-02-19T15:51:53.517Z,59.01
2023-02-19T15:54:58.352Z,58.64
2023-02-19T15:58:35.791Z,58.72
2023-02-19T16:01:37.835Z,59.50
2023-02-19T16:04:43.408Z,60.73
2023-02-19T16:07:45.437Z,59.06
2023-02-19T16:10:57.667Z,59.26
2023-02-19T16:14:18.396Z,58.95
2023-02-19T16:17:23.094Z,59.27
2023-02-19T16:20:28.795Z,58.73
2023-02-19T16:23:31.329Z,59.15
2023-02-19T16:26:40.276Z,59.01
2023-02-19T16:29:42.315Z,60.34
2023-02-19T16:32:45.512Z,60.02
2023-02-19T16:35:49.859Z,61.10
2023-02-19T16:39:07.136Z,60.23
2023-02-19T16:42:11.176Z,60.72
2023-02-19T16:45:13.219Z,62.33
2023-02-19T16:48:15.096Z,65.08
2023-02-19T16:51:18.154Z,64.24
2023-02-19T16:54:20.173Z,65.65
2023-02-19T16:57:22.169Z,64.76
2023-02-19T17:00:25.235Z,64.35
2023-02-19T17:03:27.994Z,64.45
2023-02-19T17:06:30.120Z,64.04
2023-02-19T17:09:32.105Z,64.61
2023-02-19T17:12:33.966Z,63.73
2023-02-19T17:15:35.784Z,63.67
2023-02-19T17:18:37.644Z,63.66
2023-02-19T17:21:39.957Z,63.38
2023-02-19T17:24:41.867Z,62.96
2023-02-19T17:27:43.774Z,61.78
2023-02-19T17:30:45.820Z,63.67
2023-02-19T17:33:47.884Z,61.92
2023-02-19T17:36:49.745Z,61.24
2023-02-19T17:39:51.683Z,61.84
2023-02-19T17:42:53.588Z,59.69
2023-02-19T17:45:55.564Z,60.06
2023-02-19T17:48:57.711Z,58.12
2023-02-19T17:51:59.669Z,59.30
2023-02-19T17:55:01.706Z,60.15
2023-02-19T17:58:03.613Z,60.18
2023-02-19T18:01:05.646Z,60.34
2023-02-19T18:04:07.723Z,59.38
2023-02-19T18:07:09.646Z,59.51
2023-02-19T18:10:12.080Z,59.39
2023-02-19T18:13:14.059Z,60.17
2023-02-19T18:16:16.806Z,59.77
2023-02-19T18:19:18.835Z,59.01
2023-02-19T18:22:20.716Z,60.40
2023-02-19T18:25:22.792Z,59.07
2023-02-19T18:28:24.879Z,58.20
2023-02-19T18:31:26.862Z,55.70
2023-02-19T18:34:28.724Z,57.43
2023-02-19T18:37:32.503Z,55.73
2023-02-19T18:40:34.424Z,57.03
2023-02-19T18:43:36.416Z,57.39
2023-02-19T18:46:38.245Z,57.33
2023-02-19T18:49:40.391Z,56.32
2023-02-19T18:52:42.341Z,56.84
2023-02-19T18:55:44.231Z,57.53
2023-02-19T18:58:46.220Z,56.97
2023-02-19T19:01:48.172Z,61.32
2023-02-19T19:04:51.239Z,60.85
2023-02-19T19:07:54.131Z,60.75
2023-02-19T19:10:56.038Z,59.74
2023-02-19T19:13:57.948Z,59.88
2023-02-19T19:17:00.389Z,59.79
2023-02-19T19:20:02.351Z,58.99
2023-02-19T19:23:06.079Z,60.01
2023-02-19T19:26:08.179Z,60.33
2023-02-19T19:29:10.145Z,59.04
2023-02-19T19:32:12.364Z,60.04
2023-02-19T19:35:15.737Z,62.13
2023-02-19T19:38:17.694Z,63.58
2023-02-19T19:41:19.700Z,63.69
2023-02-19T19:44:21.606Z,62.50
2023-02-19T19:47:23.445Z,64.57
2023-02-19T19:50:25.341Z,63.89
2023-02-19T19:53:27.343Z,64.86
2023-02-19T19:56:29.224Z,64.29
2023-02-19T19:59:31.258Z,63.58
2023-02-19T20:02:33.205Z,63.49
2023-02-19T20:05:35.418Z,64.06
2023-02-19T20:08:37.275Z,62.78
2023-02-19T20:11:46.471Z,63.95
2023-02-19T20:14:48.499Z,63.16
2023-02-19T20:17:50.393Z,62.24
2023-02-19T20:20:52.203Z,61.92
2023-02-19T20:23:54.135Z,61.34
2023-02-19T20:26:59.739Z,60.74
2023-02-19T20:30:01.605Z,61.56
2023-02-19T20:33:03.648Z,62.43
2023-02-19T20:36:05.797Z,63.58
2023-02-19T20:39:07.754Z,63.12
2023-02-19T20:42:09.946Z,61.21
2023-02-19T20:45:11.841Z,58.87
2023-02-19T20:48:17.027Z,59.66
2023-02-19T20:51:18.879Z,56.59
2023-02-19T20:54:21.710Z,60.67
2023-02-19T20:57:23.971Z,57.07
2023-02-19T21:00:25.935Z,58.33
2023-02-19T21:03:27.881Z,57.94
2023-02-19T21:06:29.896Z,57.61
2023-02-19T21:09:32.182Z,56.58
2023-02-19T21:12:34.150Z,56.74
2023-02-19T21:15:36.098Z,57.43
2023-02-19T21:18:38.038Z,58.73
2023-02-19T21:21:40.503Z,58.44
2023-02-19T21:24:42.370Z,58.32
2023-02-19T21:27:44.260Z,59.19
2023-02-19T21:30:46.211Z,58.84
2023-02-19T21:33:48.131Z,58.87
2023-02-19T21:36:49.956Z,57.91
2023-02-19T21:39:51.953Z,59.68
2023-02-19T21:42:53.902Z,60.50
2023-02-19T21:45:55.934Z,57.54
2023-02-19T21:48:57.823Z,57.70
2023-02-19T21:51:59.612Z,56.57
2023-02-19T21:55:01.457Z,54.49
2023-02-19T21:58:03.448Z,55.12
2023-02-19T22:01:05.272Z,53.54
2023-02-19T22:04:07.299Z,52.15
2023-02-19T22:07:09.330Z,51.73
2023-02-19T22:10:11.208Z,51.06
2023-02-19T22:13:13.193Z,49.66
2023-02-19T22:16:15.279Z,49.87
2023-02-19T22:19:17.285Z,50.24
2023-02-19T22:22:19.172Z,49.47
2023-02-19T22:25:21.061Z,49.71
2023-02-19T22:28:22.903Z,49.36
2023-02-19T22:31:25.812Z,48.52
2023-02-19T22:34:27.689Z,47.95
2023-02-19T22:37:30.032Z,47.36
2023-02-19T22:40:31.930Z,47.33
2023-02-19T22:43:33.747Z,47.19
2023-02-19T22:46:35.620Z,46.99
2023-02-19T22:49:38.100Z,45.72
2023-02-19T22:52:39.939Z,45.51
2023-02-19T22:55:42.090Z,46.32
2023-02-19T22:58:44.162Z,46.67
2023-02-19T23:01:46.148Z,45.50
2023-02-19T23:04:48.079Z,46.02
2023-02-19T23:07:49.985Z,45.19
2023-02-19T23:10:51.932Z,45.93
2023-02-19T23:13:54.089Z,46.04
2023-02-19T23:16:56.012Z,46.48
2023-02-19T23:19:58.005Z,47.52
2023-02-19T23:22:59.930Z,48.63
2023-02-19T23:26:02.403Z,46.92
2023-02-19T23:29:04.379Z,48.33
2023-02-19T23:32:06.344Z,47.72
2023-02-19T23:35:08.301Z,48.04
2023-02-19T23:38:10.199Z,46.75
2023-02-19T23:41:12.548Z,47.36
2023-02-19T23:44:14.696Z,46.71
2023-02-19T23:47:16.700Z,46.89
2023-02-19T23:50:18.698Z,45.25
2023-02-19T23:53:20.599Z,46.04
2023-02-19T23:56:23.762Z,46.88
2023-02-19T23:59:25.627Z,45.76
